الصفحة الرئيسية
METAR-TAF:

METAR-TAF

مطار :

كيميروفو, روسيا

دائرة عرض: 55-19-48N, خط طول: 086-04-48E, ارتفاع: 260 متر

مراقبة الطقس الحالي

تاريخ ووقت الإصدار 34 دقيقة قبل الساعة 17:30UTC
ريح 4 عقدة من الشمال/الشمال الشرقي
درجة الحرارة 17°درجة مئوية
الرطوبة 63%
ضغط 1010 hPa
الرؤية 10 كم أو أكثر
الغيوم لا تقل 1500 م ولا وجود لمزنة ركامية السحاب الأسود

METAR: UNEE 161730Z 02002MPS CAVOK 17/10 Q1010 R23/CLRD60 NOSIG RMK QFE735

زمن: 01:04 (18:04 UTC)

توقعات

تاريخ ووقت الإصدار 1ساعة و 4 دقيقة قبل الساعة 17:00UTC
التوقعات صالحة من16 الساعة 18 UTC إلى 17 الساعة 18 UTC
ريح 6 عقدة من الشمال
الرؤية 10 كم أو أكثر
الغيوم لا تقل 1500 م ولا وجود لمزنة ركامية السحاب الأسود
مؤقت
من 16 الساعة 21 UTC إلى 17 الساعة 01 UTC
الرؤية: 0300 متر
غيوم متفرقة على ارتفاع 200 قدم
ضباب, دخان

TAF: UNEE 161700Z 1618/1718 36003MPS CAVOK TEMPO 1621/1701 0300 FG FU SCT002

أرصاد الطقس والتوقعات من أكثر من 4000 مطار (تقارير الطقس للمطار METAR والتنبؤ بالطقس بالمطارTAF).

المحطات المتاحة هي النقط الصفراء والحمراء على الخريطة.

حرك المؤشر فوق النقطة لمعرفة اسم المحطة.

ثم انقر لمعرفة أرصاد وتوقعات الطقس.

لتغيير الخارطة: اضغط على الأزرار الخضراء مع رمز الصليب الأسود للتكبير. على الزر الأخضر مع شرطة للتصغير، أو على الأسهم الخضراء للخرائط المجاورة.


METAR-TAF: